sensor_id;sensor_type;location;lat;lon;timestamp;P1;durP1;ratioP1;P2;durP2;ratioP2
7444;SDS011;3764;48.126;11.594;2023-07-22T00:00:34;5.80;;;3.63;;
7444;SDS011;3764;48.126;11.594;2023-07-22T00:03:03;6.60;;;4.20;;
7444;SDS011;3764;48.126;11.594;2023-07-22T00:05:30;4.20;;;3.80;;
7444;SDS011;3764;48.126;11.594;2023-07-22T00:07:57;6.65;;;4.72;;
7444;SDS011;3764;48.126;11.594;2023-07-22T00:10:24;5.47;;;3.80;;
7444;SDS011;3764;48.126;11.594;2023-07-22T00:12:51;5.03;;;4.20;;
7444;SDS011;3764;48.126;11.594;2023-07-22T00:15:18;5.25;;;4.40;;
7444;SDS011;3764;48.126;11.594;2023-07-22T00:17:45;6.28;;;3.67;;
7444;SDS011;3764;48.126;11.594;2023-07-22T00:20:14;4.88;;;3.83;;
7444;SDS011;3764;48.126;11.594;2023-07-22T00:22:41;7.57;;;4.15;;
7444;SDS011;3764;48.126;11.594;2023-07-22T00:25:09;5.13;;;4.25;;
7444;SDS011;3764;48.126;11.594;2023-07-22T00:27:37;6.82;;;4.25;;
7444;SDS011;3764;48.126;11.594;2023-07-22T00:30:05;8.00;;;4.63;;
7444;SDS011;3764;48.126;11.594;2023-07-22T00:32:33;4.47;;;3.93;;
7444;SDS011;3764;48.126;11.594;2023-07-22T00:35:02;4.65;;;3.85;;
7444;SDS011;3764;48.126;11.594;2023-07-22T00:37:31;4.15;;;3.15;;
7444;SDS011;3764;48.126;11.594;2023-07-22T00:39:59;4.60;;;3.97;;
7444;SDS011;3764;48.126;11.594;2023-07-22T00:42:27;5.53;;;5.03;;
7444;SDS011;3764;48.126;11.594;2023-07-22T00:44:54;7.22;;;4.97;;
7444;SDS011;3764;48.126;11.594;2023-07-22T00:47:21;5.57;;;3.97;;
7444;SDS011;3764;48.126;11.594;2023-07-22T00:49:48;5.28;;;4.00;;
7444;SDS011;3764;48.126;11.594;2023-07-22T00:52:17;5.43;;;3.97;;
7444;SDS011;3764;48.126;11.594;2023-07-22T00:54:45;5.38;;;4.20;;
7444;SDS011;3764;48.126;11.594;2023-07-22T00:57:12;4.47;;;3.95;;
7444;SDS011;3764;48.126;11.594;2023-07-22T00:59:40;4.55;;;3.72;;
7444;SDS011;3764;48.126;11.594;2023-07-22T01:02:07;5.45;;;4.75;;
7444;SDS011;3764;48.126;11.594;2023-07-22T01:04:35;6.10;;;4.25;;
7444;SDS011;3764;48.126;11.594;2023-07-22T01:07:02;23.10;;;5.65;;
7444;SDS011;3764;48.126;11.594;2023-07-22T01:09:35;4.85;;;4.00;;
7444;SDS011;3764;48.126;11.594;2023-07-22T01:12:05;7.43;;;5.55;;
7444;SDS011;3764;48.126;11.594;2023-07-22T01:14:33;8.50;;;4.60;;
7444;SDS011;3764;48.126;11.594;2023-07-22T01:17:02;5.78;;;4.13;;
7444;SDS011;3764;48.126;11.594;2023-07-22T01:19:30;5.53;;;4.30;;
7444;SDS011;3764;48.126;11.594;2023-07-22T01:21:58;5.93;;;4.88;;
7444;SDS011;3764;48.126;11.594;2023-07-22T01:24:28;7.07;;;4.50;;
7444;SDS011;3764;48.126;11.594;2023-07-22T01:26:56;4.90;;;4.40;;
7444;SDS011;3764;48.126;11.594;2023-07-22T01:29:23;9.10;;;4.22;;
7444;SDS011;3764;48.126;11.594;2023-07-22T01:31:51;5.40;;;4.00;;
7444;SDS011;3764;48.126;11.594;2023-07-22T01:34:20;4.40;;;3.95;;
7444;SDS011;3764;48.126;11.594;2023-07-22T01:36:50;5.00;;;4.30;;
7444;SDS011;3764;48.126;11.594;2023-07-22T01:39:17;5.05;;;3.95;;
7444;SDS011;3764;48.126;11.594;2023-07-22T01:41:46;6.65;;;4.40;;
7444;SDS011;3764;48.126;11.594;2023-07-22T01:44:13;6.55;;;5.10;;
7444;SDS011;3764;48.126;11.594;2023-07-22T01:46:40;5.30;;;4.80;;
7444;SDS011;3764;48.126;11.594;2023-07-22T01:49:10;5.53;;;4.53;;
7444;SDS011;3764;48.126;11.594;2023-07-22T01:51:38;5.93;;;4.95;;
7444;SDS011;3764;48.126;11.594;2023-07-22T01:54:06;5.43;;;3.45;;
7444;SDS011;3764;48.126;11.594;2023-07-22T01:56:34;4.75;;;4.18;;
7444;SDS011;3764;48.126;11.594;2023-07-22T01:59:03;4.82;;;4.32;;
7444;SDS011;3764;48.126;11.594;2023-07-22T02:01:31;4.78;;;4.28;;
7444;SDS011;3764;48.126;11.594;2023-07-22T02:03:58;5.63;;;4.35;;
7444;SDS011;3764;48.126;11.594;2023-07-22T02:06:25;4.88;;;3.90;;
7444;SDS011;3764;48.126;11.594;2023-07-22T02:08:54;4.22;;;3.83;;
7444;SDS011;3764;48.126;11.594;2023-07-22T02:11:21;5.43;;;4.93;;
7444;SDS011;3764;48.126;11.594;2023-07-22T02:13:48;5.32;;;4.82;;
7444;SDS011;3764;48.126;11.594;2023-07-22T02:16:16;6.03;;;4.93;;
7444;SDS011;3764;48.126;11.594;2023-07-22T02:18:44;5.00;;;4.50;;
7444;SDS011;3764;48.126;11.594;2023-07-22T02:21:11;5.18;;;3.92;;
7444;SDS011;3764;48.126;11.594;2023-07-22T02:23:38;4.95;;;3.95;;
7444;SDS011;3764;48.126;11.594;2023-07-22T02:26:05;5.10;;;3.70;;
7444;SDS011;3764;48.126;11.594;2023-07-22T02:28:32;4.47;;;4.00;;
7444;SDS011;3764;48.126;11.594;2023-07-22T02:31:00;4.18;;;3.78;;
7444;SDS011;3764;48.126;11.594;2023-07-22T02:33:33;6.20;;;4.03;;
7444;SDS011;3764;48.126;11.594;2023-07-22T02:36:00;5.30;;;4.15;;
7444;SDS011;3764;48.126;11.594;2023-07-22T02:38:27;4.60;;;4.20;;
7444;SDS011;3764;48.126;11.594;2023-07-22T02:40:54;4.97;;;4.47;;
7444;SDS011;3764;48.126;11.594;2023-07-22T02:43:27;6.63;;;5.05;;
7444;SDS011;3764;48.126;11.594;2023-07-22T02:45:54;5.40;;;4.90;;
7444;SDS011;3764;48.126;11.594;2023-07-22T02:48:21;6.05;;;4.22;;
7444;SDS011;3764;48.126;11.594;2023-07-22T02:50:50;5.30;;;4.00;;
7444;SDS011;3764;48.126;11.594;2023-07-22T02:53:17;4.38;;;3.97;;
7444;SDS011;3764;48.126;11.594;2023-07-22T02:55:44;5.28;;;4.78;;
7444;SDS011;3764;48.126;11.594;2023-07-22T02:58:13;8.45;;;4.20;;
7444;SDS011;3764;48.126;11.594;2023-07-22T03:00:40;5.72;;;4.75;;
7444;SDS011;3764;48.126;11.594;2023-07-22T03:03:08;5.82;;;4.40;;
7444;SDS011;3764;48.126;11.594;2023-07-22T03:05:35;4.40;;;3.78;;
7444;SDS011;3764;48.126;11.594;2023-07-22T03:08:04;5.75;;;4.35;;
7444;SDS011;3764;48.126;11.594;2023-07-22T03:10:32;4.60;;;4.07;;
7444;SDS011;3764;48.126;11.594;2023-07-22T03:12:59;5.03;;;4.45;;
7444;SDS011;3764;48.126;11.594;2023-07-22T03:15:28;5.72;;;4.32;;
7444;SDS011;3764;48.126;11.594;2023-07-22T03:17:56;5.38;;;4.80;;
7444;SDS011;3764;48.126;11.594;2023-07-22T03:20:24;6.43;;;4.82;;
7444;SDS011;3764;48.126;11.594;2023-07-22T03:22:51;5.03;;;4.53;;
7444;SDS011;3764;48.126;11.594;2023-07-22T03:25:21;5.47;;;4.38;;
7444;SDS011;3764;48.126;11.594;2023-07-22T03:27:48;4.35;;;3.95;;
7444;SDS011;3764;48.126;11.594;2023-07-22T03:30:15;4.55;;;4.15;;
7444;SDS011;3764;48.126;11.594;2023-07-22T03:32:44;5.40;;;4.55;;
7444;SDS011;3764;48.126;11.594;2023-07-22T03:35:12;4.68;;;4.18;;
7444;SDS011;3764;48.126;11.594;2023-07-22T03:37:39;5.90;;;4.15;;
7444;SDS011;3764;48.126;11.594;2023-07-22T03:40:07;5.07;;;4.57;;
7444;SDS011;3764;48.126;11.594;2023-07-22T03:42:44;4.72;;;4.18;;
7444;SDS011;3764;48.126;11.594;2023-07-22T03:45:11;5.05;;;4.45;;
7444;SDS011;3764;48.126;11.594;2023-07-22T03:47:38;4.40;;;4.00;;
7444;SDS011;3764;48.126;11.594;2023-07-22T03:50:06;5.53;;;4.47;;
7444;SDS011;3764;48.126;11.594;2023-07-22T03:52:34;8.02;;;5.13;;
7444;SDS011;3764;48.126;11.594;2023-07-22T03:55:01;6.75;;;5.00;;
7444;SDS011;3764;48.126;11.594;2023-07-22T03:57:28;7.10;;;4.97;;
7444;SDS011;3764;48.126;11.594;2023-07-22T03:59:57;5.47;;;4.75;;
7444;SDS011;3764;48.126;11.594;2023-07-22T04:02:24;5.60;;;5.10;;
7444;SDS011;3764;48.126;11.594;2023-07-22T04:04:52;4.80;;;4.35;;
7444;SDS011;3764;48.126;11.594;2023-07-22T04:07:21;5.80;;;4.90;;
7444;SDS011;3764;48.126;11.594;2023-07-22T04:09:48;6.60;;;4.82;;
7444;SDS011;3764;48.126;11.594;2023-07-22T04:12:15;6.22;;;5.25;;
7444;SDS011;3764;48.126;11.594;2023-07-22T04:14:42;6.68;;;4.60;;
7444;SDS011;3764;48.126;11.594;2023-07-22T04:17:11;6.25;;;5.25;;
7444;SDS011;3764;48.126;11.594;2023-07-22T04:19:40;5.03;;;4.40;;
7444;SDS011;3764;48.126;11.594;2023-07-22T04:22:08;4.57;;;3.50;;
7444;SDS011;3764;48.126;11.594;2023-07-22T04:24:35;4.38;;;3.97;;
7444;SDS011;3764;48.126;11.594;2023-07-22T04:27:03;6.57;;;5.30;;
7444;SDS011;3764;48.126;11.594;2023-07-22T04:29:30;4.50;;;4.07;;
7444;SDS011;3764;48.126;11.594;2023-07-22T04:31:57;5.80;;;4.70;;
7444;SDS011;3764;48.126;11.594;2023-07-22T04:34:29;5.93;;;4.00;;
7444;SDS011;3764;48.126;11.594;2023-07-22T04:36:56;6.97;;;4.10;;
7444;SDS011;3764;48.126;11.594;2023-07-22T04:39:23;5.55;;;3.78;;
7444;SDS011;3764;48.126;11.594;2023-07-22T04:41:51;5.10;;;3.90;;
7444;SDS011;3764;48.126;11.594;2023-07-22T04:44:18;4.95;;;4.10;;
7444;SDS011;3764;48.126;11.594;2023-07-22T04:46:46;6.90;;;4.40;;
7444;SDS011;3764;48.126;11.594;2023-07-22T04:49:13;4.93;;;3.72;;
7444;SDS011;3764;48.126;11.594;2023-07-22T04:51:44;4.05;;;3.50;;
7444;SDS011;3764;48.126;11.594;2023-07-22T04:54:12;7.10;;;4.57;;
7444;SDS011;3764;48.126;11.594;2023-07-22T04:56:39;4.97;;;3.92;;
7444;SDS011;3764;48.126;11.594;2023-07-22T04:59:07;11.70;;;4.75;;
7444;SDS011;3764;48.126;11.594;2023-07-22T05:01:34;5.95;;;4.63;;
7444;SDS011;3764;48.126;11.594;2023-07-22T05:04:02;5.90;;;5.30;;
7444;SDS011;3764;48.126;11.594;2023-07-22T05:06:30;4.95;;;4.47;;
7444;SDS011;3764;48.126;11.594;2023-07-22T05:08:58;5.95;;;4.80;;
7444;SDS011;3764;48.126;11.594;2023-07-22T05:11:25;7.55;;;5.55;;
7444;SDS011;3764;48.126;11.594;2023-07-22T05:13:52;7.45;;;5.03;;
7444;SDS011;3764;48.126;11.594;2023-07-22T05:16:19;5.13;;;4.63;;
7444;SDS011;3764;48.126;11.594;2023-07-22T05:18:46;5.68;;;4.80;;
7444;SDS011;3764;48.126;11.594;2023-07-22T05:21:14;5.20;;;4.70;;
7444;SDS011;3764;48.126;11.594;2023-07-22T05:23:41;7.22;;;5.60;;
7444;SDS011;3764;48.126;11.594;2023-07-22T05:26:09;4.57;;;4.07;;
7444;SDS011;3764;48.126;11.594;2023-07-22T05:28:36;4.95;;;4.45;;
7444;SDS011;3764;48.126;11.594;2023-07-22T05:31:03;7.00;;;4.70;;
7444;SDS011;3764;48.126;11.594;2023-07-22T05:33:31;5.68;;;4.65;;
7444;SDS011;3764;48.126;11.594;2023-07-22T05:35:58;6.85;;;5.22;;
7444;SDS011;3764;48.126;11.594;2023-07-22T05:38:25;5.30;;;4.15;;
7444;SDS011;3764;48.126;11.594;2023-07-22T05:40:52;8.10;;;4.78;;
7444;SDS011;3764;48.126;11.594;2023-07-22T05:43:21;4.75;;;4.22;;
7444;SDS011;3764;48.126;11.594;2023-07-22T05:45:48;5.20;;;4.05;;
7444;SDS011;3764;48.126;11.594;2023-07-22T05:48:16;7.15;;;3.97;;
7444;SDS011;3764;48.126;11.594;2023-07-22T05:50:43;4.85;;;4.35;;
7444;SDS011;3764;48.126;11.594;2023-07-22T05:53:10;5.35;;;4.40;;
7444;SDS011;3764;48.126;11.594;2023-07-22T05:55:38;5.10;;;4.55;;
7444;SDS011;3764;48.126;11.594;2023-07-22T05:58:05;8.25;;;4.25;;
7444;SDS011;3764;48.126;11.594;2023-07-22T06:00:34;6.93;;;3.88;;
7444;SDS011;3764;48.126;11.594;2023-07-22T06:03:02;4.20;;;3.80;;
7444;SDS011;3764;48.126;11.594;2023-07-22T06:05:30;4.95;;;3.80;;
7444;SDS011;3764;48.126;11.594;2023-07-22T06:07:57;5.50;;;3.55;;
7444;SDS011;3764;48.126;11.594;2023-07-22T06:10:24;4.43;;;4.03;;
7444;SDS011;3764;48.126;11.594;2023-07-22T06:12:51;4.80;;;4.00;;
7444;SDS011;3764;48.126;11.594;2023-07-22T06:15:18;4.40;;;3.05;;
7444;SDS011;3764;48.126;11.594;2023-07-22T06:17:47;3.90;;;3.47;;
7444;SDS011;3764;48.126;11.594;2023-07-22T06:20:14;6.78;;;3.65;;
7444;SDS011;3764;48.126;11.594;2023-07-22T06:22:41;5.45;;;3.95;;
7444;SDS011;3764;48.126;11.594;2023-07-22T06:25:08;6.93;;;4.75;;
7444;SDS011;3764;48.126;11.594;2023-07-22T06:27:35;6.18;;;4.93;;
7444;SDS011;3764;48.126;11.594;2023-07-22T06:30:04;4.53;;;3.97;;
7444;SDS011;3764;48.126;11.594;2023-07-22T06:32:33;7.90;;;3.88;;
7444;SDS011;3764;48.126;11.594;2023-07-22T06:35:02;4.75;;;3.45;;
7444;SDS011;3764;48.126;11.594;2023-07-22T06:37:29;5.25;;;3.80;;
7444;SDS011;3764;48.126;11.594;2023-07-22T06:39:57;4.18;;;3.53;;
7444;SDS011;3764;48.126;11.594;2023-07-22T06:42:24;6.15;;;3.72;;
7444;SDS011;3764;48.126;11.594;2023-07-22T06:44:51;4.45;;;3.40;;
7444;SDS011;3764;48.126;11.594;2023-07-22T06:47:18;4.18;;;2.75;;
7444;SDS011;3764;48.126;11.594;2023-07-22T06:49:45;4.47;;;2.70;;
7444;SDS011;3764;48.126;11.594;2023-07-22T06:52:14;3.63;;;3.10;;
7444;SDS011;3764;48.126;11.594;2023-07-22T06:54:41;5.40;;;3.03;;
7444;SDS011;3764;48.126;11.594;2023-07-22T06:57:08;8.38;;;3.85;;
7444;SDS011;3764;48.126;11.594;2023-07-22T06:59:35;6.40;;;5.00;;
7444;SDS011;3764;48.126;11.594;2023-07-22T07:02:03;5.88;;;3.30;;
7444;SDS011;3764;48.126;11.594;2023-07-22T07:04:31;3.97;;;2.83;;
7444;SDS011;3764;48.126;11.594;2023-07-22T07:06:58;3.20;;;2.58;;
7444;SDS011;3764;48.126;11.594;2023-07-22T07:09:26;3.80;;;3.00;;
7444;SDS011;3764;48.126;11.594;2023-07-22T07:11:53;3.25;;;2.90;;
7444;SDS011;3764;48.126;11.594;2023-07-22T07:14:22;3.97;;;3.35;;
7444;SDS011;3764;48.126;11.594;2023-07-22T07:16:49;6.50;;;3.17;;
7444;SDS011;3764;48.126;11.594;2023-07-22T07:19:16;4.15;;;2.63;;
7444;SDS011;3764;48.126;11.594;2023-07-22T07:21:43;3.55;;;3.03;;
7444;SDS011;3764;48.126;11.594;2023-07-22T07:24:11;4.95;;;3.03;;
7444;SDS011;3764;48.126;11.594;2023-07-22T07:26:39;3.45;;;2.80;;
7444;SDS011;3764;48.126;11.594;2023-07-22T07:29:07;4.17;;;2.87;;
7444;SDS011;3764;48.126;11.594;2023-07-22T07:31:34;3.40;;;2.80;;
7444;SDS011;3764;48.126;11.594;2023-07-22T07:34:01;4.55;;;3.05;;
7444;SDS011;3764;48.126;11.594;2023-07-22T07:36:28;3.75;;;2.55;;
7444;SDS011;3764;48.126;11.594;2023-07-22T07:38:55;6.15;;;3.30;;
7444;SDS011;3764;48.126;11.594;2023-07-22T07:41:22;5.63;;;3.08;;
7444;SDS011;3764;48.126;11.594;2023-07-22T07:43:51;4.55;;;2.75;;
7444;SDS011;3764;48.126;11.594;2023-07-22T07:46:21;4.10;;;2.58;;
7444;SDS011;3764;48.126;11.594;2023-07-22T07:48:49;3.88;;;2.90;;
7444;SDS011;3764;48.126;11.594;2023-07-22T07:51:17;4.35;;;2.63;;
7444;SDS011;3764;48.126;11.594;2023-07-22T07:53:45;2.72;;;2.15;;
7444;SDS011;3764;48.126;11.594;2023-07-22T07:56:13;3.20;;;2.37;;
7444;SDS011;3764;48.126;11.594;2023-07-22T07:58:41;3.35;;;2.40;;
7444;SDS011;3764;48.126;11.594;2023-07-22T08:01:10;2.43;;;2.23;;
7444;SDS011;3764;48.126;11.594;2023-07-22T08:03:37;4.10;;;3.20;;
7444;SDS011;3764;48.126;11.594;2023-07-22T08:06:05;2.63;;;2.03;;
7444;SDS011;3764;48.126;11.594;2023-07-22T08:08:32;2.80;;;2.45;;
7444;SDS011;3764;48.126;11.594;2023-07-22T08:11:00;4.30;;;2.63;;
7444;SDS011;3764;48.126;11.594;2023-07-22T08:13:29;4.00;;;3.40;;
7444;SDS011;3764;48.126;11.594;2023-07-22T08:15:56;3.57;;;3.10;;
7444;SDS011;3764;48.126;11.594;2023-07-22T08:18:25;5.27;;;2.73;;
7444;SDS011;3764;48.126;11.594;2023-07-22T08:20:52;4.00;;;2.67;;
7444;SDS011;3764;48.126;11.594;2023-07-22T08:23:20;4.50;;;2.35;;
7444;SDS011;3764;48.126;11.594;2023-07-22T08:25:48;4.00;;;3.60;;
7444;SDS011;3764;48.126;11.594;2023-07-22T08:28:15;7.17;;;3.53;;
7444;SDS011;3764;48.126;11.594;2023-07-22T08:30:43;5.00;;;2.60;;
7444;SDS011;3764;48.126;11.594;2023-07-22T08:33:11;3.87;;;2.63;;
7444;SDS011;3764;48.126;11.594;2023-07-22T08:35:40;3.30;;;2.43;;
7444;SDS011;3764;48.126;11.594;2023-07-22T08:38:07;3.23;;;2.37;;
7444;SDS011;3764;48.126;11.594;2023-07-22T08:40:34;5.27;;;2.20;;
7444;SDS011;3764;48.126;11.594;2023-07-22T08:43:02;3.90;;;2.67;;
7444;SDS011;3764;48.126;11.594;2023-07-22T08:45:31;4.33;;;2.73;;
7444;SDS011;3764;48.126;11.594;2023-07-22T08:48:02;3.50;;;2.23;;
7444;SDS011;3764;48.126;11.594;2023-07-22T08:50:34;2.77;;;2.30;;
7444;SDS011;3764;48.126;11.594;2023-07-22T08:53:08;3.47;;;2.10;;
7444;SDS011;3764;48.126;11.594;2023-07-22T08:55:36;3.10;;;2.00;;
7444;SDS011;3764;48.126;11.594;2023-07-22T08:58:05;2.57;;;2.20;;
7444;SDS011;3764;48.126;11.594;2023-07-22T09:00:34;3.00;;;2.70;;
7444;SDS011;3764;48.126;11.594;2023-07-22T09:03:01;4.43;;;2.00;;
7444;SDS011;3764;48.126;11.594;2023-07-22T09:05:30;3.43;;;2.03;;
7444;SDS011;3764;48.126;11.594;2023-07-22T09:07:59;2.93;;;2.63;;
7444;SDS011;3764;48.126;11.594;2023-07-22T09:10:30;6.70;;;5.67;;
7444;SDS011;3764;48.126;11.594;2023-07-22T09:12:59;2.83;;;2.27;;
7444;SDS011;3764;48.126;11.594;2023-07-22T09:15:26;2.73;;;1.97;;
7444;SDS011;3764;48.126;11.594;2023-07-22T09:17:54;3.00;;;2.23;;
7444;SDS011;3764;48.126;11.594;2023-07-22T09:20:21;2.20;;;1.63;;
7444;SDS011;3764;48.126;11.594;2023-07-22T09:22:49;2.70;;;1.90;;
7444;SDS011;3764;48.126;11.594;2023-07-22T09:25:17;2.80;;;2.50;;
7444;SDS011;3764;48.126;11.594;2023-07-22T09:27:48;1.90;;;1.60;;
7444;SDS011;3764;48.126;11.594;2023-07-22T09:30:23;5.80;;;2.60;;
7444;SDS011;3764;48.126;11.594;2023-07-22T09:32:52;2.00;;;1.63;;
7444;SDS011;3764;48.126;11.594;2023-07-22T09:35:20;7.30;;;1.80;;
7444;SDS011;3764;48.126;11.594;2023-07-22T09:37:49;3.47;;;2.70;;
7444;SDS011;3764;48.126;11.594;2023-07-22T09:40:17;3.60;;;2.57;;
7444;SDS011;3764;48.126;11.594;2023-07-22T09:42:48;16.70;;;7.03;;
7444;SDS011;3764;48.126;11.594;2023-07-22T09:45:16;11.23;;;5.57;;
7444;SDS011;3764;48.126;11.594;2023-07-22T09:47:44;11.53;;;5.37;;
7444;SDS011;3764;48.126;11.594;2023-07-22T09:50:14;2.90;;;2.10;;
7444;SDS011;3764;48.126;11.594;2023-07-22T09:52:45;2.10;;;1.90;;
7444;SDS011;3764;48.126;11.594;2023-07-22T09:55:14;2.60;;;2.17;;
7444;SDS011;3764;48.126;11.594;2023-07-22T09:57:44;2.70;;;2.00;;
7444;SDS011;3764;48.126;11.594;2023-07-22T10:00:14;3.27;;;2.23;;
7444;SDS011;3764;48.126;11.594;2023-07-22T10:02:45;2.80;;;2.00;;
7444;SDS011;3764;48.126;11.594;2023-07-22T10:05:15;3.70;;;2.20;;
7444;SDS011;3764;48.126;11.594;2023-07-22T10:07:44;2.10;;;1.83;;
7444;SDS011;3764;48.126;11.594;2023-07-22T10:10:12;3.10;;;1.70;;
7444;SDS011;3764;48.126;11.594;2023-07-22T10:12:41;2.23;;;1.90;;
7444;SDS011;3764;48.126;11.594;2023-07-22T10:15:09;4.87;;;2.00;;
7444;SDS011;3764;48.126;11.594;2023-07-22T10:17:38;3.60;;;1.83;;
7444;SDS011;3764;48.126;11.594;2023-07-22T10:20:06;2.90;;;1.70;;
7444;SDS011;3764;48.126;11.594;2023-07-22T10:22:36;5.50;;;2.80;;
7444;SDS011;3764;48.126;11.594;2023-07-22T10:25:04;4.00;;;2.57;;
7444;SDS011;3764;48.126;11.594;2023-07-22T10:27:33;2.10;;;1.80;;
7444;SDS011;3764;48.126;11.594;2023-07-22T10:30:01;2.80;;;1.93;;
7444;SDS011;3764;48.126;11.594;2023-07-22T10:32:33;3.00;;;2.70;;
7444;SDS011;3764;48.126;11.594;2023-07-22T10:35:03;2.57;;;1.90;;
7444;SDS011;3764;48.126;11.594;2023-07-22T10:37:31;3.47;;;2.77;;
7444;SDS011;3764;48.126;11.594;2023-07-22T10:39:59;3.00;;;1.63;;
7444;SDS011;3764;48.126;11.594;2023-07-22T10:42:27;2.90;;;2.17;;
7444;SDS011;3764;48.126;11.594;2023-07-22T10:44:59;3.40;;;1.97;;
7444;SDS011;3764;48.126;11.594;2023-07-22T10:47:31;6.20;;;3.67;;
7444;SDS011;3764;48.126;11.594;2023-07-22T10:50:06;3.20;;;2.53;;
7444;SDS011;3764;48.126;11.594;2023-07-22T10:52:39;2.77;;;2.37;;
7444;SDS011;3764;48.126;11.594;2023-07-22T10:55:15;5.90;;;2.23;;
7444;SDS011;3764;48.126;11.594;2023-07-22T10:57:49;2.20;;;1.83;;
7444;SDS011;3764;48.126;11.594;2023-07-22T11:00:18;3.67;;;2.00;;
7444;SDS011;3764;48.126;11.594;2023-07-22T11:02:47;2.50;;;2.03;;
7444;SDS011;3764;48.126;11.594;2023-07-22T11:05:48;8.07;;;5.70;;
7444;SDS011;3764;48.126;11.594;2023-07-22T11:11:03;2.30;;;2.10;;
7444;SDS011;3764;48.126;11.594;2023-07-22T11:13:34;2.43;;;1.90;;
7444;SDS011;3764;48.126;11.594;2023-07-22T11:16:04;4.17;;;2.30;;
7444;SDS011;3764;48.126;11.594;2023-07-22T11:18:37;3.30;;;1.60;;
7444;SDS011;3764;48.126;11.594;2023-07-22T11:21:10;4.57;;;2.77;;
7444;SDS011;3764;48.126;11.594;2023-07-22T11:23:38;5.50;;;2.53;;
7444;SDS011;3764;48.126;11.594;2023-07-22T11:26:05;3.60;;;2.80;;
7444;SDS011;3764;48.126;11.594;2023-07-22T11:28:32;2.27;;;1.60;;
7444;SDS011;3764;48.126;11.594;2023-07-22T11:31:00;2.77;;;2.23;;
7444;SDS011;3764;48.126;11.594;2023-07-22T11:33:37;2.50;;;1.80;;
7444;SDS011;3764;48.126;11.594;2023-07-22T11:36:05;1.90;;;1.60;;
7444;SDS011;3764;48.126;11.594;2023-07-22T11:38:33;3.43;;;2.50;;
7444;SDS011;3764;48.126;11.594;2023-07-22T11:41:01;2.83;;;2.23;;
7444;SDS011;3764;48.126;11.594;2023-07-22T11:43:28;3.10;;;2.47;;
7444;SDS011;3764;48.126;11.594;2023-07-22T11:45:55;2.60;;;2.37;;
7444;SDS011;3764;48.126;11.594;2023-07-22T11:48:23;3.47;;;2.50;;
7444;SDS011;3764;48.126;11.594;2023-07-22T11:50:50;2.50;;;1.90;;
7444;SDS011;3764;48.126;11.594;2023-07-22T11:53:17;2.43;;;2.10;;
7444;SDS011;3764;48.126;11.594;2023-07-22T11:55:45;2.50;;;2.30;;
7444;SDS011;3764;48.126;11.594;2023-07-22T11:58:13;2.33;;;2.13;;
7444;SDS011;3764;48.126;11.594;2023-07-22T12:00:42;3.03;;;2.50;;
7444;SDS011;3764;48.126;11.594;2023-07-22T12:03:09;2.90;;;1.83;;
7444;SDS011;3764;48.126;11.594;2023-07-22T12:05:36;8.97;;;2.07;;
7444;SDS011;3764;48.126;11.594;2023-07-22T12:08:04;3.23;;;1.70;;
7444;SDS011;3764;48.126;11.594;2023-07-22T12:10:31;4.50;;;2.00;;
7444;SDS011;3764;48.126;11.594;2023-07-22T12:13:01;2.63;;;2.30;;
7444;SDS011;3764;48.126;11.594;2023-07-22T12:15:28;2.70;;;1.97;;
7444;SDS011;3764;48.126;11.594;2023-07-22T12:17:58;2.53;;;2.10;;
7444;SDS011;3764;48.126;11.594;2023-07-22T12:20:27;4.73;;;2.00;;
7444;SDS011;3764;48.126;11.594;2023-07-22T12:22:55;2.70;;;2.07;;
7444;SDS011;3764;48.126;11.594;2023-07-22T12:25:23;5.83;;;2.30;;
7444;SDS011;3764;48.126;11.594;2023-07-22T12:27:51;3.30;;;1.80;;
7444;SDS011;3764;48.126;11.594;2023-07-22T12:30:19;2.87;;;2.30;;
7444;SDS011;3764;48.126;11.594;2023-07-22T12:32:49;2.60;;;2.40;;
7444;SDS011;3764;48.126;11.594;2023-07-22T12:35:16;2.03;;;1.83;;
7444;SDS011;3764;48.126;11.594;2023-07-22T12:37:43;3.77;;;2.20;;
7444;SDS011;3764;48.126;11.594;2023-07-22T12:40:10;3.40;;;2.50;;
7444;SDS011;3764;48.126;11.594;2023-07-22T12:42:38;4.13;;;2.23;;
7444;SDS011;3764;48.126;11.594;2023-07-22T12:45:05;3.10;;;2.40;;
7444;SDS011;3764;48.126;11.594;2023-07-22T12:47:35;2.60;;;2.10;;
7444;SDS011;3764;48.126;11.594;2023-07-22T12:50:03;5.97;;;5.40;;
7444;SDS011;3764;48.126;11.594;2023-07-22T12:52:32;3.30;;;3.00;;
7444;SDS011;3764;48.126;11.594;2023-07-22T12:54:59;3.60;;;2.37;;
7444;SDS011;3764;48.126;11.594;2023-07-22T12:57:26;2.83;;;2.43;;
7444;SDS011;3764;48.126;11.594;2023-07-22T12:59:54;4.57;;;2.10;;
7444;SDS011;3764;48.126;11.594;2023-07-22T13:02:21;3.40;;;1.93;;
7444;SDS011;3764;48.126;11.594;2023-07-22T13:04:50;2.47;;;2.27;;
7444;SDS011;3764;48.126;11.594;2023-07-22T13:07:17;2.20;;;2.00;;
7444;SDS011;3764;48.126;11.594;2023-07-22T13:09:44;3.57;;;2.80;;
7444;SDS011;3764;48.126;11.594;2023-07-22T13:12:18;3.70;;;2.90;;
7444;SDS011;3764;48.126;11.594;2023-07-22T13:14:45;3.30;;;2.80;;
7444;SDS011;3764;48.126;11.594;2023-07-22T13:17:12;2.93;;;2.03;;
7444;SDS011;3764;48.126;11.594;2023-07-22T13:19:40;2.67;;;2.20;;
7444;SDS011;3764;48.126;11.594;2023-07-22T13:22:08;3.70;;;2.00;;
7444;SDS011;3764;48.126;11.594;2023-07-22T13:24:35;2.30;;;1.97;;
7444;SDS011;3764;48.126;11.594;2023-07-22T13:27:02;2.63;;;2.33;;
7444;SDS011;3764;48.126;11.594;2023-07-22T13:29:30;2.37;;;2.00;;
7444;SDS011;3764;48.126;11.594;2023-07-22T13:31:57;2.30;;;1.87;;
7444;SDS011;3764;48.126;11.594;2023-07-22T13:34:24;2.83;;;2.40;;
7444;SDS011;3764;48.126;11.594;2023-07-22T13:36:51;2.20;;;1.87;;
7444;SDS011;3764;48.126;11.594;2023-07-22T13:39:20;3.07;;;2.00;;
7444;SDS011;3764;48.126;11.594;2023-07-22T13:41:47;2.37;;;2.17;;
7444;SDS011;3764;48.126;11.594;2023-07-22T13:44:15;2.47;;;1.97;;
7444;SDS011;3764;48.126;11.594;2023-07-22T13:46:42;2.27;;;1.87;;
7444;SDS011;3764;48.126;11.594;2023-07-22T13:49:09;2.67;;;2.13;;
7444;SDS011;3764;48.126;11.594;2023-07-22T13:51:36;2.70;;;1.90;;
7444;SDS011;3764;48.126;11.594;2023-07-22T13:54:03;2.37;;;2.10;;
7444;SDS011;3764;48.126;11.594;2023-07-22T13:56:32;2.80;;;2.30;;
7444;SDS011;3764;48.126;11.594;2023-07-22T13:58:59;4.00;;;3.17;;
7444;SDS011;3764;48.126;11.594;2023-07-22T14:01:28;2.73;;;2.30;;
7444;SDS011;3764;48.126;11.594;2023-07-22T14:03:56;2.60;;;1.90;;
7444;SDS011;3764;48.126;11.594;2023-07-22T14:06:23;2.67;;;2.13;;
7444;SDS011;3764;48.126;11.594;2023-07-22T14:08:50;2.50;;;2.00;;
7444;SDS011;3764;48.126;11.594;2023-07-22T14:11:18;2.33;;;2.13;;
7444;SDS011;3764;48.126;11.594;2023-07-22T14:13:46;4.83;;;2.23;;
7444;SDS011;3764;48.126;11.594;2023-07-22T14:16:13;4.00;;;2.90;;
7444;SDS011;3764;48.126;11.594;2023-07-22T14:18:40;2.50;;;2.07;;
7444;SDS011;3764;48.126;11.594;2023-07-22T14:21:07;2.40;;;2.10;;
7444;SDS011;3764;48.126;11.594;2023-07-22T14:23:36;3.07;;;2.27;;
7444;SDS011;3764;48.126;11.594;2023-07-22T14:26:03;2.70;;;2.00;;
7444;SDS011;3764;48.126;11.594;2023-07-22T14:28:30;2.10;;;1.80;;
7444;SDS011;3764;48.126;11.594;2023-07-22T14:30:58;3.70;;;2.67;;
7444;SDS011;3764;48.126;11.594;2023-07-22T14:33:25;2.30;;;1.83;;
7444;SDS011;3764;48.126;11.594;2023-07-22T14:35:52;3.67;;;2.63;;
7444;SDS011;3764;48.126;11.594;2023-07-22T14:38:19;2.77;;;2.30;;
7444;SDS011;3764;48.126;11.594;2023-07-22T14:40:46;5.77;;;4.10;;
7444;SDS011;3764;48.126;11.594;2023-07-22T14:43:14;2.70;;;2.30;;
7444;SDS011;3764;48.126;11.594;2023-07-22T14:45:41;3.13;;;2.80;;
7444;SDS011;3764;48.126;11.594;2023-07-22T14:48:09;2.50;;;2.00;;
7444;SDS011;3764;48.126;11.594;2023-07-22T14:50:36;2.77;;;2.57;;
7444;SDS011;3764;48.126;11.594;2023-07-22T14:53:03;3.10;;;2.40;;
7444;SDS011;3764;48.126;11.594;2023-07-22T14:55:30;3.83;;;2.20;;
7444;SDS011;3764;48.126;11.594;2023-07-22T14:57:57;5.07;;;3.17;;
7444;SDS011;3764;48.126;11.594;2023-07-22T15:00:24;3.47;;;2.47;;
7444;SDS011;3764;48.126;11.594;2023-07-22T15:02:51;3.20;;;2.27;;
7444;SDS011;3764;48.126;11.594;2023-07-22T15:05:20;3.77;;;2.77;;
7444;SDS011;3764;48.126;11.594;2023-07-22T15:07:47;2.80;;;2.20;;